Huvudsida
METAR-TAF:

METAR-TAF

Flygplatser :

Surat Thani, Thailand

latitud: 09-07N, longitud: 099-21E, höjd: 10 m

Aktuellt väderrapport

Denna rapport gjordes för 6 timmar och 4 minuter sedan, klockan 15:00 UTC
Vind 6 kt från nord
Temperatur 28°C
Fuktighet 79%
Tryck 1012 hPa
Sikt 10 km eller mer
Få moln på en höjd av 2000 ft

METAR: VTSB 221500Z 36006KT 9999 FEW020 28/24 Q1012 NOSIG

Tid: 04:04 (21:04 UTC)

Väderprognos

Denna rapport gjordes för 4 timmar och 4 minuter sedan, klockan 17:00 UTC
Prognos gäller från 22 kl. 18 UTC till 23 kl. 18 UTC
Vind 3 kt från nord/nordväst
Sikt 10 km eller mer
Få moln på en höjd av 2000 ft
Blir
från 23 kl. 04 UTC till 23 kl. 06 UTC
Vind 10 kt från nordost
Blir
från 23 kl. 13 UTC till 23 kl. 15 UTC
Vind 3 kt från nord/nordväst

TAF: VTSB 221700Z 2218/2318 33003KT 9999 FEW020 BECMG 2304/2306 04010KT BECMG 2313/2315 33003KT

Aktuella väderrapporter och prognoser från 4000 flygplatser (METAR- och TAF-rapporter).

De tillgängliga stationerna syns som gula och röda prickar på kartan.

För musen över prickarna för att se namnen på stationerna.

Klicka sedan för att få väderrapporter och prognoser.

För att ändra kartan: Klicka på de gröna knapparna med ett svart kors på för att zooma in; den gröna knappen med ett streck på för att zooma ut; eller på de gröna pilarna för angränsande kartor.


METAR-TAF: